createdAt,value
2018-03-04T06:57:59.053Z,121.62
2018-03-04T07:00:27.435Z,132.18
2018-03-04T07:02:55.773Z,119.43
2018-03-04T07:05:24.102Z,113.45
2018-03-04T07:07:52.485Z,122.93
2018-03-04T07:10:20.812Z,115.35
2018-03-04T07:12:49.168Z,118.90
2018-03-04T07:15:17.500Z,105.60
2018-03-04T07:17:45.902Z,108.30
2018-03-04T07:20:14.319Z,109.50
2018-03-04T07:22:42.670Z,109.53
2018-03-04T07:25:11.087Z,112.22
2018-03-04T07:27:39.521Z,115.55
2018-03-04T07:30:07.877Z,119.35
2018-03-04T07:32:36.400Z,121.40
2018-03-04T07:35:04.787Z,114.95
2018-03-04T07:37:33.130Z,111.03
2018-03-04T07:40:01.595Z,115.40
2018-03-04T07:42:29.986Z,111.57
2018-03-04T07:44:58.400Z,112.85
2018-03-04T07:47:26.761Z,114.37
2018-03-04T07:49:55.226Z,101.80
2018-03-04T07:52:23.628Z,105.10
2018-03-04T07:54:51.964Z,113.15
2018-03-04T07:57:20.323Z,108.37
2018-03-04T07:59:48.654Z,109.43
2018-03-04T08:02:16.995Z,116.30
2018-03-04T08:04:45.336Z,115.97
2018-03-04T08:07:13.672Z,124.00
2018-03-04T08:09:42.017Z,97.57
2018-03-04T08:12:10.384Z,119.22
2018-03-04T08:14:39.058Z,113.45
2018-03-04T08:17:07.781Z,113.10
2018-03-04T08:19:36.127Z,105.18
2018-03-04T08:22:04.500Z,112.57
2018-03-04T08:24:38.483Z,124.25
2018-03-04T08:27:19.099Z,112.53
2018-03-04T08:29:47.453Z,124.85
2018-03-04T08:32:15.803Z,108.35
2018-03-04T08:34:44.134Z,107.78
2018-03-04T08:37:12.543Z,112.43
2018-03-04T08:39:40.855Z,117.20
2018-03-04T08:42:09.289Z,115.50
2018-03-04T08:44:37.693Z,120.70
2018-03-04T08:47:06.141Z,121.87
2018-03-04T08:49:34.527Z,114.85
2018-03-04T08:52:02.882Z,113.70
2018-03-04T08:54:31.214Z,115.85
2018-03-04T08:56:59.627Z,111.47
2018-03-04T08:59:27.992Z,112.85
2018-03-04T09:01:56.389Z,103.53
2018-03-04T09:04:24.716Z,114.57
2018-03-04T09:06:53.109Z,99.28
2018-03-04T09:09:21.521Z,106.20
2018-03-04T09:11:49.865Z,106.32
2018-03-04T09:14:18.239Z,117.80
2018-03-04T09:16:46.551Z,105.87
2018-03-04T09:19:14.902Z,108.43
2018-03-04T09:21:43.234Z,108.07
2018-03-04T09:24:11.562Z,110.97
2018-03-04T09:26:40.010Z,114.25
2018-03-04T09:29:08.372Z,116.03
2018-03-04T09:31:36.702Z,101.40
2018-03-04T09:34:05.089Z,104.47
2018-03-04T09:36:33.480Z,107.70
2018-03-04T09:39:01.939Z,106.40
2018-03-04T09:41:30.302Z,115.47
2018-03-04T09:43:58.633Z,107.25
2018-03-04T09:46:26.991Z,100.40
2018-03-04T09:48:55.348Z,100.75
2018-03-04T09:51:23.739Z,87.90
2018-03-04T09:53:52.111Z,98.57
2018-03-04T09:56:20.527Z,111.72
2018-03-04T09:58:48.941Z,112.72
2018-03-04T10:01:17.331Z,103.35
2018-03-04T10:03:45.705Z,111.97
2018-03-04T10:06:14.040Z,91.70
2018-03-04T10:08:42.413Z,101.72
2018-03-04T10:11:10.764Z,102.40
2018-03-04T10:13:39.147Z,88.50
2018-03-04T10:16:07.509Z,93.47
2018-03-04T10:18:35.848Z,93.25
2018-03-04T10:21:04.200Z,96.15
2018-03-04T10:23:32.562Z,100.68
2018-03-04T10:26:00.954Z,113.50
2018-03-04T10:28:29.331Z,93.47
2018-03-04T10:30:57.681Z,83.22
2018-03-04T10:33:26.007Z,78.45
2018-03-04T10:35:54.365Z,90.07
2018-03-04T10:38:22.732Z,85.35
2018-03-04T10:40:51.087Z,78.00
2018-03-04T10:43:19.425Z,79.03
2018-03-04T10:45:47.764Z,68.82
2018-03-04T10:48:16.114Z,75.57
2018-03-04T10:50:44.497Z,70.37
2018-03-04T10:53:12.883Z,71.07
2018-03-04T10:55:41.251Z,76.50
2018-03-04T10:58:09.631Z,76.05
2018-03-04T11:00:44.076Z,67.93
2018-03-04T11:03:16.512Z,71.05
2018-03-04T11:05:46.066Z,80.50
2018-03-04T11:08:14.712Z,75.80
2018-03-04T11:10:43.133Z,76.82
2018-03-04T11:13:11.571Z,73.30
2018-03-04T11:15:39.950Z,71.10
2018-03-04T11:18:09.320Z,77.32
2018-03-04T11:20:38.343Z,73.15
2018-03-04T11:23:06.908Z,75.22
2018-03-04T11:25:35.274Z,76.50
2018-03-04T11:28:03.633Z,81.85
2018-03-04T11:30:32.113Z,80.97
2018-03-04T11:33:02.052Z,79.32
2018-03-04T11:35:30.441Z,78.12
2018-03-04T11:37:58.829Z,74.37
2018-03-04T11:40:27.193Z,78.78
2018-03-04T11:42:55.634Z,84.28
2018-03-04T11:45:24.029Z,85.28
2018-03-04T11:47:52.420Z,78.82
2018-03-04T11:50:20.814Z,77.03
2018-03-04T11:52:49.208Z,83.73
2018-03-04T11:55:17.617Z,85.07
2018-03-04T11:57:46.156Z,84.15
2018-03-04T12:00:14.543Z,80.43
2018-03-04T12:02:42.880Z,77.90
2018-03-04T12:05:11.360Z,86.00
2018-03-04T12:07:39.719Z,85.80
2018-03-04T12:10:08.040Z,75.83
2018-03-04T12:12:36.455Z,88.72
2018-03-04T12:15:04.862Z,84.30
2018-03-04T12:17:33.310Z,79.25
2018-03-04T12:20:01.682Z,91.90
2018-03-04T12:22:30.043Z,75.87
2018-03-04T12:24:58.446Z,85.82
2018-03-04T12:27:26.885Z,86.28
2018-03-04T12:29:55.232Z,80.93
2018-03-04T12:32:23.633Z,87.10
2018-03-04T12:34:51.998Z,76.80
2018-03-04T12:37:20.351Z,73.82
2018-03-04T12:39:48.778Z,82.25
2018-03-04T12:42:17.212Z,81.55
2018-03-04T12:44:45.562Z,86.82
2018-03-04T12:47:13.976Z,90.17
2018-03-04T12:49:42.326Z,81.32
2018-03-04T12:52:10.681Z,86.00
2018-03-04T12:54:39.016Z,74.23
2018-03-04T12:57:07.393Z,88.60
2018-03-04T12:59:35.723Z,84.37
2018-03-04T13:02:04.090Z,89.93
2018-03-04T13:04:32.427Z,86.40
2018-03-04T13:07:00.834Z,90.10
2018-03-04T13:09:29.172Z,91.03
2018-03-04T13:11:57.509Z,83.83
2018-03-04T13:14:25.906Z,89.17
2018-03-04T13:16:54.233Z,91.77
2018-03-04T13:19:22.568Z,87.70
2018-03-04T13:21:50.938Z,80.20
2018-03-04T13:24:19.285Z,82.17
2018-03-04T13:26:47.668Z,82.12
2018-03-04T13:29:16.131Z,82.20
2018-03-04T13:31:44.482Z,84.40
2018-03-04T13:34:12.840Z,88.13
2018-03-04T13:36:41.307Z,73.73
2018-03-04T13:39:09.669Z,86.80
2018-03-04T13:41:38.100Z,83.78
2018-03-04T13:44:06.458Z,87.43
2018-03-04T13:46:34.906Z,78.07
2018-03-04T13:49:03.325Z,76.68
2018-03-04T13:51:31.780Z,74.82
2018-03-04T13:54:00.217Z,76.87
2018-03-04T13:56:28.535Z,78.80
2018-03-04T13:58:56.864Z,76.73
2018-03-04T14:01:25.203Z,80.55
2018-03-04T14:03:53.569Z,87.13
2018-03-04T14:06:21.960Z,78.07
2018-03-04T14:08:50.299Z,79.33
2018-03-04T14:11:18.626Z,102.22
2018-03-04T14:13:46.966Z,81.27
2018-03-04T14:16:15.306Z,83.93
2018-03-04T14:18:43.686Z,86.18
2018-03-04T14:21:12.033Z,87.85
2018-03-04T14:23:40.379Z,81.22
2018-03-04T14:26:08.779Z,90.53
2018-03-04T14:28:37.182Z,90.65
2018-03-04T14:31:12.694Z,82.05
2018-03-04T14:33:41.017Z,92.10
2018-03-04T14:36:09.464Z,97.25
2018-03-04T14:38:37.853Z,85.90
2018-03-04T14:41:06.312Z,82.30
2018-03-04T14:43:34.824Z,82.10
2018-03-04T14:46:03.349Z,84.20
2018-03-04T14:48:31.664Z,85.95
2018-03-04T14:51:00.026Z,83.10
2018-03-04T14:53:28.386Z,82.22
2018-03-04T14:55:56.859Z,92.82
2018-03-04T14:58:25.245Z,86.82
2018-03-04T15:00:53.643Z,83.93
2018-03-04T15:03:22.041Z,91.50
2018-03-04T15:05:50.352Z,85.80
2018-03-04T15:08:18.826Z,97.25
2018-03-04T15:10:47.173Z,101.25
2018-03-04T15:13:15.554Z,82.53
2018-03-04T15:15:43.902Z,89.30
2018-03-04T15:18:12.245Z,85.93
2018-03-04T15:20:40.631Z,87.05
2018-03-04T15:23:08.958Z,80.55
2018-03-04T15:25:37.335Z,92.20
2018-03-04T15:28:05.711Z,82.82
2018-03-04T15:30:34.114Z,82.50
2018-03-04T15:33:02.545Z,90.07
2018-03-04T15:35:30.898Z,88.60
2018-03-04T15:37:59.253Z,84.78
2018-03-04T15:40:28.816Z,87.50
2018-03-04T15:42:57.280Z,92.62
2018-03-04T15:45:25.625Z,90.85
2018-03-04T15:47:54.032Z,98.07
2018-03-04T15:50:22.381Z,92.28
2018-03-04T15:52:50.784Z,93.07
2018-03-04T15:55:19.114Z,89.30
2018-03-04T15:57:47.506Z,88.85
2018-03-04T16:00:15.931Z,81.53
2018-03-04T16:02:44.295Z,94.93
2018-03-04T16:05:12.627Z,98.15
2018-03-04T16:07:41.028Z,89.60
2018-03-04T16:10:09.460Z,88.43
2018-03-04T16:12:37.901Z,86.28
2018-03-04T16:15:06.325Z,85.78
2018-03-04T16:17:34.754Z,92.37
2018-03-04T16:20:03.262Z,92.95
2018-03-04T16:22:31.719Z,91.93
2018-03-04T16:25:00.237Z,93.15
2018-03-04T16:27:28.616Z,98.85
2018-03-04T16:29:56.993Z,98.22
2018-03-04T16:32:25.433Z,87.88
2018-03-04T16:34:53.758Z,97.97
2018-03-04T16:37:22.313Z,95.72
2018-03-04T16:39:50.675Z,94.15
2018-03-04T16:42:19.173Z,95.05
2018-03-04T16:44:47.594Z,97.03
2018-03-04T16:47:16.052Z,87.82
2018-03-04T16:49:44.428Z,87.68
2018-03-04T16:52:12.822Z,99.53
2018-03-04T16:54:41.310Z,94.10
2018-03-04T16:57:09.708Z,105.00
2018-03-04T16:59:38.148Z,91.20
2018-03-04T17:02:06.562Z,100.87
2018-03-04T17:04:35.070Z,101.28
2018-03-04T17:07:03.715Z,100.93
2018-03-04T17:09:32.129Z,92.10
2018-03-04T17:12:00.630Z,107.78
2018-03-04T17:14:28.982Z,91.20
2018-03-04T17:16:57.413Z,101.75
2018-03-04T17:19:25.831Z,96.18
2018-03-04T17:21:54.193Z,109.22
2018-03-04T17:24:22.700Z,110.05
2018-03-04T17:26:51.103Z,99.22
2018-03-04T17:29:19.576Z,117.90
2018-03-04T17:31:48.082Z,109.80
2018-03-04T17:34:16.471Z,104.65
2018-03-04T17:36:44.927Z,103.03
2018-03-04T17:39:13.330Z,115.60
2018-03-04T17:41:41.758Z,100.30
2018-03-04T17:44:10.159Z,99.13
2018-03-04T17:46:38.690Z,129.32
2018-03-04T17:49:07.114Z,112.82
2018-03-04T17:51:35.555Z,99.10
2018-03-04T17:54:03.914Z,111.65
2018-03-04T17:56:32.411Z,111.07
2018-03-04T17:59:00.766Z,112.70
2018-03-04T18:01:29.143Z,111.35
2018-03-04T18:03:57.536Z,108.57
2018-03-04T18:06:25.925Z,118.97
2018-03-04T18:08:54.255Z,104.75
2018-03-04T18:11:22.629Z,111.30
2018-03-04T18:13:50.968Z,107.53
2018-03-04T18:16:19.295Z,105.03
2018-03-04T18:18:47.732Z,113.43
2018-03-04T18:21:16.106Z,105.47
2018-03-04T18:23:44.502Z,112.12
2018-03-04T18:26:12.864Z,98.85
2018-03-04T18:28:41.211Z,97.53
2018-03-04T18:31:09.629Z,98.07
2018-03-04T18:33:37.992Z,112.65
2018-03-04T18:36:06.428Z,115.28
2018-03-04T18:38:34.765Z,100.22
2018-03-04T18:41:03.150Z,109.32
2018-03-04T18:43:31.555Z,109.12
2018-03-04T18:45:59.938Z,108.10
2018-03-04T18:48:28.322Z,107.70
2018-03-04T18:50:56.667Z,96.32
2018-03-04T18:53:25.056Z,112.50
2018-03-04T18:55:53.484Z,118.47
2018-03-04T18:58:21.841Z,111.15
2018-03-04T19:00:50.224Z,116.80
2018-03-04T19:03:18.577Z,117.85
2018-03-04T19:05:46.937Z,121.53
2018-03-04T19:08:15.296Z,109.07
2018-03-04T19:10:43.624Z,139.80
2018-03-04T19:13:12.820Z,129.68
2018-03-04T19:15:41.205Z,103.43
2018-03-04T19:18:09.550Z,125.82
2018-03-04T19:20:38.030Z,125.60
2018-03-04T19:23:06.368Z,121.10
2018-03-04T19:25:34.768Z,116.95
2018-03-04T19:28:03.178Z,121.93
2018-03-04T19:30:31.580Z,118.78
2018-03-04T19:32:59.917Z,102.57
2018-03-04T19:35:28.512Z,118.03
2018-03-04T19:37:56.853Z,116.53
2018-03-04T19:40:25.188Z,119.80
2018-03-04T19:42:53.599Z,127.72
2018-03-04T19:45:21.987Z,124.30
2018-03-04T19:47:50.590Z,125.03
2018-03-04T19:50:18.946Z,119.78
2018-03-04T19:52:47.314Z,126.47
2018-03-04T19:55:16.277Z,130.27
2018-03-04T19:57:44.745Z,109.45
2018-03-04T20:00:13.101Z,115.03
2018-03-04T20:02:43.596Z,125.50
2018-03-04T20:05:12.008Z,118.68
2018-03-04T20:07:40.371Z,108.75
2018-03-04T20:10:08.799Z,117.00
2018-03-04T20:12:37.209Z,109.68
2018-03-04T20:15:05.576Z,109.40
2018-03-04T20:17:33.904Z,114.72
2018-03-04T20:20:02.282Z,109.30
2018-03-04T20:22:30.662Z,146.52
2018-03-04T20:24:59.019Z,119.70
2018-03-04T20:27:27.454Z,125.32
2018-03-04T20:29:55.877Z,118.40
2018-03-04T20:32:24.253Z,120.20
2018-03-04T20:34:52.611Z,124.05
2018-03-04T20:37:21.076Z,131.15
2018-03-04T20:39:49.505Z,118.97
2018-03-04T20:42:17.860Z,122.28
2018-03-04T20:44:46.367Z,129.35
2018-03-04T20:47:14.730Z,127.95
2018-03-04T20:49:43.892Z,127.07
2018-03-04T20:52:12.310Z,128.80
2018-03-04T20:54:40.693Z,116.88
2018-03-04T20:57:09.079Z,137.05
2018-03-04T20:59:37.421Z,120.60
2018-03-04T21:02:05.789Z,128.00
2018-03-04T21:04:34.244Z,124.68
2018-03-04T21:07:02.639Z,144.18
2018-03-04T21:09:31.001Z,125.57
2018-03-04T21:11:59.361Z,128.57
2018-03-04T21:14:28.395Z,129.63
2018-03-04T21:16:56.845Z,134.37
2018-03-04T21:19:25.575Z,123.07
2018-03-04T21:21:54.930Z,119.82
2018-03-04T21:24:23.307Z,129.82
2018-03-04T21:26:52.037Z,115.00
2018-03-04T21:29:20.518Z,118.18
2018-03-04T21:31:49.842Z,133.02
2018-03-04T21:34:18.251Z,120.43
2018-03-04T21:36:46.836Z,147.57
2018-03-04T21:39:15.557Z,125.03
2018-03-04T21:41:44.633Z,124.43
2018-03-04T21:44:13.029Z,125.78
2018-03-04T21:46:41.866Z,122.53
2018-03-04T21:49:10.233Z,129.12
2018-03-04T21:51:39.286Z,116.53
2018-03-04T21:54:08.410Z,119.03
2018-03-04T21:56:36.787Z,126.12
2018-03-04T21:59:05.185Z,109.80
2018-03-04T22:01:34.067Z,113.85
2018-03-04T22:04:02.437Z,117.20
2018-03-04T22:06:30.796Z,116.45
2018-03-04T22:08:59.147Z,108.30
2018-03-04T22:11:27.723Z,131.48
2018-03-04T22:13:56.185Z,126.45
2018-03-04T22:16:24.576Z,130.93
2018-03-04T22:18:52.939Z,146.30
2018-03-04T22:21:21.279Z,123.00
2018-03-04T22:23:50.617Z,128.77
2018-03-04T22:26:18.941Z,116.45
2018-03-04T22:28:47.346Z,116.93
2018-03-04T22:31:15.745Z,113.93
2018-03-04T22:33:44.053Z,136.25
2018-03-04T22:36:12.388Z,123.05
2018-03-04T22:38:40.765Z,128.50
2018-03-04T22:41:09.102Z,132.87
2018-03-04T22:43:37.438Z,134.30
2018-03-04T22:46:05.831Z,134.68
2018-03-04T22:51:09.123Z,127.57
2018-03-04T22:53:37.523Z,132.85
2018-03-04T22:56:05.860Z,126.18
2018-03-04T22:58:34.221Z,117.05
2018-03-04T23:01:02.602Z,124.95
2018-03-04T23:03:30.994Z,147.35
2018-03-04T23:06:00.154Z,121.78
2018-03-04T23:08:28.485Z,127.18
2018-03-04T23:10:56.814Z,123.97
2018-03-04T23:13:25.160Z,132.02
2018-03-04T23:15:53.526Z,123.22
2018-03-04T23:18:21.841Z,144.40
2018-03-04T23:20:50.364Z,141.73
2018-03-04T23:23:18.698Z,145.52
2018-03-04T23:25:47.050Z,126.45
2018-03-04T23:28:15.419Z,118.60
2018-03-04T23:30:43.785Z,129.48
2018-03-04T23:33:12.143Z,120.40
2018-03-04T23:35:40.470Z,124.62
2018-03-04T23:38:08.944Z,130.73
2018-03-04T23:40:37.305Z,155.40
2018-03-04T23:43:05.772Z,131.75
2018-03-04T23:45:34.086Z,133.48
2018-03-04T23:48:02.520Z,127.87
2018-03-04T23:50:30.842Z,132.30
2018-03-04T23:52:59.188Z,151.63
2018-03-04T23:55:27.527Z,136.48
2018-03-04T23:57:55.898Z,132.87
